Welkom op deze website. De huidige weercondities zijn wegens een verhuizing tijdelijk niet beschikbaar. Na 01-01-2019 zal deze website alleen nog via www.meteolopik.nl te bereiken zijn.

Thank you for visiting this website. The current weatherconditions are unavailable due to a moving. After 01-01-2019 this website will only be available at www.meteolopik.nl
Sneeuw/IJzel/Bevriezing van: 16-12-2018 03:00 tot: 07:00 waarschuwing voor: Sneeuw/IJzel/Bevriezing niveau: Geel info button

waarschuwing voor winterse neerslag Meer informatie rain snow radar



METAR rapporten vliegvelden

   
EHAM - Amsterdam/Schiph, Netherlands
Afstand tot: NW 32 km
Gewijzigd: 16-12-2018 03:55
Nevel, Grotendeels bewolkt  
Nevel, Grotendeels bewolkt  
   Wind: ZZO 29.6 km/h
Wind: ZZO 29.6 km/h
Temperatuur: 0°C
Voelt als: -7°C
Dauwpunt: -1°C
Vochtigheid: 93%
Barometer: 1009 hPa
Bewolking: Grotendeels bewolkt
Zicht: 5 km
Bewolking: Gedeeltelijk bewolkt 600 ft,
Grotendeels bewolkt 800 ft
EHAM 160255Z 15016KT 4500 BR SCT006 BKN008 M00/M01 Q1009 TEMPO -DZ
EHRD - Rotterdam Airpor, Netherlands
Afstand tot: WZW 45 km
Gewijzigd: 16-12-2018 03:55
Light, Grotendeels bewolkt  
Light, Grotendeels bewolkt  
   Wind: ZZO 18.5 km/h
Wind: ZZO 18.5 km/h
Temperatuur: 0°C
Voelt als: -5°C
Dauwpunt: 0°C
Vochtigheid: 100%
Barometer: 1008 hPa
Bewolking: Grotendeels bewolkt
Zicht: 4 km
Bewolking: Grotendeels bewolkt 600 ft,
Grotendeels bewolkt 700 ft,
Licht bewolkt 1500 ft
EHRD 160255Z AUTO 15010KT 120V180 4100 -UP BKN006 BKN007 FEW015CB 00/M00 Q1008 REDZUP 06/591091 NOSIG
EHDL - Deelen Rnlafb, Netherlands
Afstand tot: O 55 km
Gewijzigd: 16-12-2018 03:55
Mogelijk wat sneeuw, Bewolking  
Mogelijk wat sneeuw, Bewolking  
   Wind: ZO 22.2 km/h
Wind: ZO 22.2 km/h
Temperatuur: -1°C
Voelt als: -7°C
Dauwpunt: -2°C
Vochtigheid: 93%
Barometer: 1010 hPa
Bewolking: Bewolking
Zicht: 4 km
Bewolking: Licht bewolkt 800 ft,
Bewolking 1800 ft
EHDL 160255Z AUTO 14012KT 090V200 4000 -SN FEW008 OVC018 M01/M02 Q1010 GRN
EHGR - Gilze-Rijen Rnla, Netherlands
Afstand tot: Z 59 km
Gewijzigd: 16-12-2018 04:10
Light Freezing, , Grotendeels bewolkt  
Light Freezing, , Grotendeels bewolkt  
   Wind: ZZO 16.7 km/h
Wind: ZZO 16.7 km/h
Temperatuur: 0°C
Voelt als: -4°C
Dauwpunt: 0°C
Vochtigheid: 100%
Barometer: 1009 hPa
Bewolking: Grotendeels bewolkt
Zicht: 3 km
Bewolking: Licht bewolkt 500 ft,
Grotendeels bewolkt 600 ft,
Grotendeels bewolkt 800 ft,
Licht bewolkt 1500 ft
EHGR 160310Z AUTO 15009KT 120V180 3200 -FZUP FEW005 BKN006 BKN008 FEW015CB 00/M00 Q1009 YLO
EHVK - Volkel Rnlafb, Netherlands
Afstand tot: ZO 67 km
Gewijzigd: 16-12-2018 03:55
Mogelijk wat sneeuw, Grotendeels bewolkt  
Mogelijk wat sneeuw, Grotendeels bewolkt  
   Wind: ZO 18.5 km/h
Wind: ZO 18.5 km/h
Temperatuur: -1°C
Voelt als: -6°C
Dauwpunt: -2°C
Vochtigheid: 93%
Barometer: 1010 hPa
Bewolking: Grotendeels bewolkt
Zicht: 2 km
Bewolking: Licht bewolkt 1600 ft,
Gedeeltelijk bewolkt 2100 ft,
Grotendeels bewolkt 2400 ft
EHVK 160255Z AUTO 14010KT 110V170 2400 R06L/2000U -SN FEW016 SCT021 BKN024 M01/M02 Q1010 YLO
EHEH - Eindhoven Rnlafb, Netherlands
Afstand tot: ZZO 74 km
Gewijzigd: 16-12-2018 03:55
Light Freezing, Regen, Mogelijk wat sneeuw, Bewolking  
Light Freezing, Regen, Mogelijk wat sneeuw, Bewolking  
   Wind: ZO 16.7 km/h
Wind: ZO 16.7 km/h
Temperatuur: -1°C
Voelt als: -6°C
Dauwpunt: -1°C
Vochtigheid: 100%
Barometer: 1010 hPa
Bewolking: Bewolking
Zicht: 3 km
Bewolking: Licht bewolkt 500 ft,
Grotendeels bewolkt 600 ft,
Bewolking 2100 ft
EHEH 160255Z AUTO 14009KT 3100 -FZRA -SN FEW005 BKN006 OVC021 M01/M01 Q1010 YLO

Script ontwikkeld door  Saratoga-weather.org Aangepast voor de template door  Weerstation Leuven

Apparatuur in gebruik:

Weerstation
Davis VP2 Plus (Wireless)

Weerprogramma
Cumulus

Weercomputer
Shuttle Inc. SFM27

Webleverancier
Antagonist Webhosting

Davis VP2 Plus (Wireless)

Cumulus

Shuttle Inc. SFM27

Antagonist Webhosting